createdAt,value
2022-09-14T00:01:25.383Z,99251.80
2022-09-14T00:06:30.979Z,99247.40
2022-09-14T00:11:36.474Z,99249.80
2022-09-14T00:16:42.489Z,99243.00
2022-09-14T00:21:45.950Z,99244.40
2022-09-14T00:26:49.749Z,99241.80
2022-09-14T00:31:53.157Z,99248.00
2022-09-14T00:36:56.407Z,99241.20
2022-09-14T00:41:59.910Z,99238.00
2022-09-14T00:47:03.630Z,99236.20
2022-09-14T00:52:19.233Z,99232.00
2022-09-14T00:57:24.798Z,99228.00
2022-09-14T01:02:29.681Z,99223.60
2022-09-14T01:08:16.412Z,99218.00
2022-09-14T01:13:42.561Z,99209.80
2022-09-14T01:18:53.012Z,99202.80
2022-09-14T01:24:38.149Z,99199.20
2022-09-14T01:30:07.485Z,99190.80
2022-09-14T01:35:34.168Z,99190.20
2022-09-14T01:40:49.686Z,99186.60
2022-09-14T01:46:08.303Z,99187.40
2022-09-14T01:51:19.633Z,99186.20
2022-09-14T01:56:39.228Z,99189.60
2022-09-14T02:01:53.108Z,99189.40
2022-09-14T02:06:57.210Z,99179.20
2022-09-14T02:12:01.136Z,99176.40
2022-09-14T02:17:04.781Z,99169.80
2022-09-14T02:22:08.165Z,99161.00
2022-09-14T02:27:11.294Z,99160.40
2022-09-14T02:32:35.252Z,99143.80
2022-09-14T02:38:06.947Z,99143.40
2022-09-14T02:43:34.839Z,99136.60
2022-09-14T02:48:40.906Z,99130.80
2022-09-14T02:54:09.309Z,99123.60
2022-09-14T02:59:12.408Z,99120.60
2022-09-14T03:04:15.849Z,99114.00
2022-09-14T03:09:19.242Z,99116.40
2022-09-14T03:14:22.347Z,99121.00
2022-09-14T03:19:25.453Z,99115.20
2022-09-14T03:24:28.557Z,99112.40
2022-09-14T03:29:31.696Z,99117.40
2022-09-14T03:34:34.874Z,99119.60
2022-09-14T03:39:37.978Z,99114.80
2022-09-14T03:44:41.085Z,99120.80
2022-09-14T03:49:44.191Z,99118.00
2022-09-14T03:54:47.323Z,99114.20
2022-09-14T03:59:50.821Z,99122.80
2022-09-14T04:04:54.026Z,99123.80
2022-09-14T04:09:57.175Z,99123.00
2022-09-14T04:15:00.234Z,99120.60
2022-09-14T04:20:04.629Z,99114.60
2022-09-14T04:25:08.606Z,99112.20
2022-09-14T04:30:13.043Z,99114.20
2022-09-14T04:35:16.141Z,99111.40
2022-09-14T04:40:19.328Z,99116.00
2022-09-14T04:45:22.555Z,99130.40
2022-09-14T04:50:25.667Z,99130.00
2022-09-14T04:55:28.776Z,99131.20
2022-09-14T05:00:36.252Z,99133.60
2022-09-14T05:05:44.317Z,99133.80
2022-09-14T05:10:48.237Z,99134.40
2022-09-14T05:15:52.016Z,99141.00
2022-09-14T05:20:55.080Z,99142.20
2022-09-14T05:25:59.186Z,99132.20
2022-09-14T05:31:13.250Z,99132.00
2022-09-14T05:36:17.605Z,99126.80
2022-09-14T05:41:20.996Z,99128.40
2022-09-14T05:46:24.245Z,99131.40
2022-09-14T05:51:28.823Z,99126.60
2022-09-14T05:56:32.156Z,99121.60
2022-09-14T06:01:35.511Z,99128.00
2022-09-14T06:06:38.881Z,99126.60
2022-09-14T06:11:42.799Z,99133.20
2022-09-14T06:16:46.935Z,99132.60
2022-09-14T06:21:50.035Z,99133.60
2022-09-14T06:26:53.243Z,99141.80
2022-09-14T06:31:56.351Z,99145.80
2022-09-14T06:36:59.762Z,99152.40
2022-09-14T06:42:03.012Z,99151.00
2022-09-14T06:47:07.106Z,99159.20
2022-09-14T06:52:10.223Z,99156.60
2022-09-14T06:57:13.316Z,99158.60
2022-09-14T07:02:16.460Z,99156.80
2022-09-14T07:07:19.832Z,99161.40
2022-09-14T07:12:22.938Z,99160.20
2022-09-14T07:17:25.947Z,99165.80
2022-09-14T07:22:29.153Z,99166.40
2022-09-14T07:27:34.270Z,99167.40
2022-09-14T07:32:37.338Z,99168.60
2022-09-14T07:37:40.521Z,99166.60
2022-09-14T07:42:43.668Z,99165.20
2022-09-14T07:47:48.685Z,99163.00
2022-09-14T07:52:52.501Z,99162.00
2022-09-14T07:57:56.970Z,99163.40
2022-09-14T08:03:00.346Z,99165.60
2022-09-14T08:08:03.677Z,99173.20
2022-09-14T08:13:06.864Z,99163.60
2022-09-14T08:18:09.978Z,99160.80
2022-09-14T08:23:13.493Z,99161.80
2022-09-14T08:28:16.601Z,99157.20
2022-09-14T08:33:19.721Z,99154.40
2022-09-14T08:38:23.412Z,99155.00
2022-09-14T08:43:28.125Z,99164.60
2022-09-14T08:48:37.703Z,99167.80
2022-09-14T08:53:42.898Z,99163.00
2022-09-14T08:59:25.696Z,99163.80
2022-09-14T09:04:53.613Z,99159.80
2022-09-14T09:09:58.576Z,99158.40
2022-09-14T09:15:22.138Z,99157.20
2022-09-14T09:20:51.972Z,99162.00
2022-09-14T09:26:16.789Z,99160.40
2022-09-14T09:31:33.448Z,99155.60
2022-09-14T09:36:41.243Z,99155.00
2022-09-14T09:41:51.234Z,99143.80
2022-09-14T09:47:02.126Z,99141.60
2022-09-14T09:52:24.400Z,99132.20
2022-09-14T09:57:36.907Z,99145.80
2022-09-14T10:02:41.811Z,99142.80
2022-09-14T10:07:50.510Z,99145.80
2022-09-14T10:12:57.041Z,99144.80
2022-09-14T10:18:12.325Z,99153.00
2022-09-14T10:23:18.419Z,99156.80
2022-09-14T10:28:33.992Z,99157.60
2022-09-14T10:33:37.112Z,99163.00
2022-09-14T10:38:50.904Z,99161.80
2022-09-14T10:44:24.692Z,99167.40
2022-09-14T10:50:31.794Z,99162.80
2022-09-14T10:56:23.971Z,99164.60
2022-09-14T11:01:45.614Z,99167.40
2022-09-14T11:07:12.554Z,99164.00
2022-09-14T11:12:52.259Z,99167.20
2022-09-14T11:18:19.799Z,99181.40
2022-09-14T11:23:43.882Z,99177.20
2022-09-14T11:28:59.190Z,99175.00
2022-09-14T11:34:38.453Z,99167.80
2022-09-14T11:40:47.025Z,99168.00
2022-09-14T11:46:06.337Z,99166.20
2022-09-14T11:51:23.093Z,99170.00
2022-09-14T11:56:34.087Z,99167.40
2022-09-14T12:01:41.594Z,99166.20
2022-09-14T12:06:50.133Z,99170.20
2022-09-14T12:12:00.525Z,99174.80
2022-09-14T12:17:40.340Z,99165.60
2022-09-14T12:22:49.924Z,99165.80
2022-09-14T12:27:54.159Z,99174.60
2022-09-14T12:32:57.384Z,99172.40
2022-09-14T12:38:29.255Z,99176.00
2022-09-14T12:43:33.689Z,99172.80
2022-09-14T12:49:26.559Z,99160.60
2022-09-14T12:55:27.831Z,99161.00
2022-09-14T13:00:49.580Z,99156.80
2022-09-14T13:05:52.677Z,99162.00
2022-09-14T13:10:55.830Z,99157.20
2022-09-14T13:16:07.655Z,99161.80
2022-09-14T13:21:24.980Z,99165.40
2022-09-14T13:26:31.847Z,99170.40
2022-09-14T13:31:39.748Z,99163.80
2022-09-14T13:36:44.839Z,99159.40
2022-09-14T13:41:48.420Z,99149.80
2022-09-14T13:46:52.347Z,99151.00
2022-09-14T13:52:33.959Z,99148.20
2022-09-14T13:58:16.452Z,99150.60
2022-09-14T14:03:48.633Z,99147.20
2022-09-14T14:09:05.777Z,99148.80
2022-09-14T14:14:30.772Z,99144.80
2022-09-14T14:19:34.550Z,99131.00
2022-09-14T14:24:55.715Z,99130.00
2022-09-14T14:30:04.446Z,99130.00
2022-09-14T14:35:22.566Z,99133.00
2022-09-14T14:40:28.060Z,99135.80
2022-09-14T14:45:36.365Z,99143.20
2022-09-14T14:50:40.301Z,99146.60
2022-09-14T14:55:43.493Z,99135.00
2022-09-14T15:00:48.139Z,99128.00
2022-09-14T15:05:51.549Z,99127.80
2022-09-14T15:10:58.288Z,99120.60
2022-09-14T15:16:01.407Z,99124.40
2022-09-14T15:21:05.491Z,99125.20
2022-09-14T15:26:08.685Z,99123.80
2022-09-14T15:31:13.513Z,99119.80
2022-09-14T15:36:51.763Z,99118.80
2022-09-14T15:41:56.811Z,99122.40
2022-09-14T15:47:00.140Z,99120.80
2022-09-14T15:52:04.155Z,99114.80
2022-09-14T15:57:11.904Z,99112.60
2022-09-14T16:02:17.115Z,99117.20
2022-09-14T16:07:20.666Z,99117.00
2022-09-14T16:12:23.856Z,99114.00
2022-09-14T16:17:27.153Z,99097.80
2022-09-14T16:22:30.603Z,99098.40
2022-09-14T16:27:34.085Z,99091.40
2022-09-14T16:32:37.393Z,99085.20
2022-09-14T16:37:40.499Z,99084.60
2022-09-14T16:42:44.017Z,99081.20
2022-09-14T16:47:47.046Z,99086.00
2022-09-14T16:52:50.126Z,99080.80
2022-09-14T16:57:53.234Z,99080.60
2022-09-14T17:02:56.337Z,99073.80
2022-09-14T17:07:59.441Z,99078.80
2022-09-14T17:13:02.565Z,99075.20
2022-09-14T17:18:05.756Z,99074.80
2022-09-14T17:23:08.759Z,99078.40
2022-09-14T17:28:11.868Z,99083.00
2022-09-14T17:33:14.974Z,99090.80
2022-09-14T17:38:19.484Z,99091.60
2022-09-14T17:43:22.619Z,99094.40
2022-09-14T17:48:27.973Z,99089.80
2022-09-14T17:53:31.185Z,99094.00
2022-09-14T17:58:36.079Z,99095.00
2022-09-14T18:03:41.964Z,99090.60
2022-09-14T18:08:46.671Z,99085.00
2022-09-14T18:13:51.175Z,99087.60
2022-09-14T18:18:55.011Z,99089.00
2022-09-14T18:23:58.540Z,99087.00
2022-09-14T18:29:03.889Z,99095.80
2022-09-14T18:34:08.522Z,99086.00
2022-09-14T18:39:13.392Z,99085.40
2022-09-14T18:44:16.603Z,99080.80
2022-09-14T18:49:19.909Z,99074.60
2022-09-14T18:54:27.457Z,99080.60
2022-09-14T18:59:31.330Z,99083.00
2022-09-14T19:04:34.854Z,99083.60
2022-09-14T19:09:38.054Z,99077.80
2022-09-14T19:14:41.260Z,99077.20
2022-09-14T19:19:44.470Z,99071.80
2022-09-14T19:24:47.581Z,99067.00
2022-09-14T19:29:52.641Z,99064.40
2022-09-14T19:34:55.936Z,99059.60
2022-09-14T19:39:59.206Z,99056.20
2022-09-14T19:45:03.985Z,99061.20
2022-09-14T19:50:09.326Z,99064.80
2022-09-14T19:55:12.505Z,99057.80
2022-09-14T20:00:18.175Z,99055.40
2022-09-14T20:05:21.947Z,99047.80
2022-09-14T20:10:26.795Z,99055.00
2022-09-14T20:15:30.566Z,99047.60
2022-09-14T20:20:37.789Z,99042.00
2022-09-14T20:25:40.860Z,99043.00
2022-09-14T20:30:44.126Z,99046.00
2022-09-14T20:35:49.204Z,99040.00
2022-09-14T20:41:06.816Z,99042.40
2022-09-14T20:46:15.134Z,99041.80
2022-09-14T20:51:20.891Z,99045.80
2022-09-14T20:56:31.160Z,99041.00
2022-09-14T21:01:37.364Z,99045.20
2022-09-14T21:06:52.779Z,99044.00
2022-09-14T21:11:56.187Z,99040.40
2022-09-14T21:16:59.606Z,99041.20
2022-09-14T21:22:03.012Z,99036.80
2022-09-14T21:27:07.835Z,99036.60
2022-09-14T21:32:11.071Z,99032.40
2022-09-14T21:37:14.484Z,99028.80
2022-09-14T21:42:17.477Z,99023.60
2022-09-14T21:47:20.795Z,99028.20
2022-09-14T21:52:23.927Z,99023.00
2022-09-14T21:57:26.979Z,99019.80
2022-09-14T22:02:30.200Z,99020.40
2022-09-14T22:07:33.450Z,99014.60
2022-09-14T22:12:36.531Z,99007.20
2022-09-14T22:17:39.562Z,99000.20
2022-09-14T22:22:44.663Z,98998.80
2022-09-14T22:27:47.600Z,98992.40
2022-09-14T22:32:50.625Z,98997.60
2022-09-14T22:37:53.629Z,98995.40
2022-09-14T22:42:56.611Z,98987.00
2022-09-14T22:47:59.570Z,98981.60
2022-09-14T22:53:02.551Z,98966.80
2022-09-14T22:58:06.737Z,98968.20
2022-09-14T23:03:11.512Z,98972.00
2022-09-14T23:08:14.557Z,98971.20
2022-09-14T23:13:17.602Z,98973.00
2022-09-14T23:18:20.591Z,98963.20
2022-09-14T23:23:23.555Z,98966.60
2022-09-14T23:28:26.521Z,98956.40
2022-09-14T23:33:31.094Z,98962.60
2022-09-14T23:38:35.546Z,98964.40
2022-09-14T23:43:38.686Z,98961.80
2022-09-14T23:48:41.839Z,98953.40
2022-09-14T23:53:45.207Z,98953.80
2022-09-14T23:58:48.613Z,98946.60
